LiveATC.Net - Listen to live air traffic control over the Internet!

Find LiveATC Audio Streams


Airport/ARTCC Code

Frequency Search
(e.g., 124.400, 128.75)
Site-wide search
 


Browse LiveATC Feeds
Top 50 LiveATC Feeds
Bad Weather Areas

LiveATC FAQ
Offer a LiveATC Feed
Contact LiveATC.net
Press Inquiries

LiveATC on iPhone
LiveATC on Android

Windows Phone
Windows 8/10

LiveATC Mobile
(Mobile browser)

ATC Audio Archives
Interesting Recordings

LiveATC Forums

Home Page
About LiveATC.net
Make a Donation
Terms of Use
Privacy Policy

Canadian Air Freqs

AIRMETs/SIGMETs

FAA Airport Status
Nat'l Airspace Status
Arrival Demand Charts


Server Software By:
Icecast.org
Liquidsoap

Select an area of interest:
U.S. Feeds: Class B Airports | Class C Airports | Class D/Other Airports | ARTCC (Centers)
International Feeds: Canada | Europe | Oceania | Asia | South America | North/Central America | Africa
Misc Feeds: HF Feeds
Search by ICAO/IATA airport code:   (e.g., kbos, kjfk, lax, eham, etc.)


Currently Available Live Feeds: 2306
Status Updated: Tue Nov 20 2018 20:37:01 UTC


NOTICE

Unauthorized use prohibited. See LiveATC.net Terms of Service

Africa Airport Feeds

 

FIMP Twr/App/Ctr #1 (Archives)
Plaine Magnien, Mauritius

Feed Status: UP
Listen in your browser - HTML5 player(in browser, HTML5)
Listen right in your browser(in browser, requires Flash)
Click here to listen with your own player(launches your MP3 player)

FIMP 202000Z 10012KT 9999 SCT016 SCT100 25/21 Q1019


Listeners: 0 out of 1485 total

FIMP Approach: 119.100
FIMP Tower: 118.100
FMEE Approach/Departure: 127.200
Mauritius Centre: 129.300

FIMP Twr/App/Ctr #2 (Archives)
Plaine Magnien, Mauritius

Feed Status: UP
Listen in your browser - HTML5 player(in browser, HTML5)
Listen right in your browser(in browser, requires Flash)
Click here to listen with your own player(launches your MP3 player)

FIMP 202000Z 10012KT 9999 SCT016 SCT100 25/21 Q1019


Listeners: 0 out of 1485 total

FIMP Approach: 119.100
FIMP Tower: 118.100
Mauritius Centre: 129.300

FMEE Tower (Archives)
Sainte-Marie, Reunion

Feed Status: UP
Listen in your browser - HTML5 player(in browser, HTML5)
Listen right in your browser(in browser, requires Flash)
Click here to listen with your own player(launches your MP3 player)

FMEE 202000Z AUTO 12011KT 9999 FEW020 23/21 Q1018 BECMG 09015G25KT


Listeners: 0 out of 1485 total

Gillot Tower: 118.400

FMEP Info (Archives)
Saint-Pierre, Reunion

Feed Status: UP
Listen in your browser - HTML5 player(in browser, HTML5)
Listen right in your browser(in browser, requires Flash)
Click here to listen with your own player(launches your MP3 player)

FMEP 202000Z AUTO 07004KT 9999 FEW090 23/18 Q1018


Listeners: 0 out of 1485 total

Saint-Pierre Info: 122.400

FMMI Twr/App/Center (Archives)
Antananarivo, Madagascar

Feed Status: UP
Listen in your browser - HTML5 player(in browser, HTML5)
Listen right in your browser(in browser, requires Flash)
Click here to listen with your own player(launches your MP3 player)

FMMI 202000Z 12007KT 100V170 9999 FEW017 BKN020 18/15 Q1023 NOSIG


Listeners: 0 out of 1485 total

Ivato Approach: 125.700
Ivato Tower: 120.100
Tana Control: 128.900

HKJK Gnd/Twr/Radar (Archives)
Nairobi, Kenya

Feed Status: UP
Listen in your browser - HTML5 player(in browser, HTML5)
Listen right in your browser(in browser, requires Flash)
Click here to listen with your own player(launches your MP3 player)

HKJK 202000Z 02007KT CAVOK 19/14 Q1023 NOSIG


Listeners: 1 out of 1485 total

Nairobi Ground: 121.600
Nairobi Radar: 122.300
Nairobi Tower: 118.700
Wilson Airport Tower: 118.100